sensor_id;sensor_type;location;lat;lon;timestamp;temperature;humidity
11700;DHT22;5906;51.660;6.674;2023-05-10T00:00:21;14.10;99.90
11700;DHT22;5906;51.660;6.674;2023-05-10T00:02:49;14.10;99.90
11700;DHT22;5906;51.660;6.674;2023-05-10T00:05:17;14.00;99.90
11700;DHT22;5906;51.660;6.674;2023-05-10T00:07:43;14.00;99.90
11700;DHT22;5906;51.660;6.674;2023-05-10T00:10:11;13.90;99.90
11700;DHT22;5906;51.660;6.674;2023-05-10T00:12:38;13.90;99.90
11700;DHT22;5906;51.660;6.674;2023-05-10T00:15:06;13.90;99.90
11700;DHT22;5906;51.660;6.674;2023-05-10T00:17:33;13.80;99.90
11700;DHT22;5906;51.660;6.674;2023-05-10T00:20:00;13.80;99.90
11700;DHT22;5906;51.660;6.674;2023-05-10T00:22:27;13.80;99.90
11700;DHT22;5906;51.660;6.674;2023-05-10T00:24:53;13.80;99.90
11700;DHT22;5906;51.660;6.674;2023-05-10T00:27:21;13.80;99.90
11700;DHT22;5906;51.660;6.674;2023-05-10T00:29:47;13.80;99.90
11700;DHT22;5906;51.660;6.674;2023-05-10T00:32:14;13.80;99.90
11700;DHT22;5906;51.660;6.674;2023-05-10T00:34:42;13.90;99.90
11700;DHT22;5906;51.660;6.674;2023-05-10T00:37:09;13.90;99.90
11700;DHT22;5906;51.660;6.674;2023-05-10T00:39:36;13.80;99.90
11700;DHT22;5906;51.660;6.674;2023-05-10T00:42:03;13.80;99.90
11700;DHT22;5906;51.660;6.674;2023-05-10T00:44:30;13.80;99.90
11700;DHT22;5906;51.660;6.674;2023-05-10T00:46:57;13.80;99.90
11700;DHT22;5906;51.660;6.674;2023-05-10T00:49:25;13.80;99.90
11700;DHT22;5906;51.660;6.674;2023-05-10T00:51:54;13.80;99.90
11700;DHT22;5906;51.660;6.674;2023-05-10T00:54:22;13.70;99.90
11700;DHT22;5906;51.660;6.674;2023-05-10T00:56:49;13.70;99.90
11700;DHT22;5906;51.660;6.674;2023-05-10T00:59:16;13.70;99.90
11700;DHT22;5906;51.660;6.674;2023-05-10T01:01:47;13.70;99.90
11700;DHT22;5906;51.660;6.674;2023-05-10T01:04:15;13.70;99.90
11700;DHT22;5906;51.660;6.674;2023-05-10T01:06:42;13.70;99.90
11700;DHT22;5906;51.660;6.674;2023-05-10T01:09:09;13.70;99.90
11700;DHT22;5906;51.660;6.674;2023-05-10T01:11:38;13.70;99.90
11700;DHT22;5906;51.660;6.674;2023-05-10T01:14:06;13.70;99.90
11700;DHT22;5906;51.660;6.674;2023-05-10T01:16:37;13.70;99.90
11700;DHT22;5906;51.660;6.674;2023-05-10T01:19:17;13.70;99.90
11700;DHT22;5906;51.660;6.674;2023-05-10T01:33:19;13.70;99.90
11700;DHT22;5906;51.660;6.674;2023-05-10T01:36:31;13.70;99.90
11700;DHT22;5906;51.660;6.674;2023-05-10T01:39:25;13.60;99.90
11700;DHT22;5906;51.660;6.674;2023-05-10T01:42:14;13.60;99.90
11700;DHT22;5906;51.660;6.674;2023-05-10T01:44:53;13.60;99.90
11700;DHT22;5906;51.660;6.674;2023-05-10T01:47:38;13.60;99.90
11700;DHT22;5906;51.660;6.674;2023-05-10T01:50:10;13.70;99.90
11700;DHT22;5906;51.660;6.674;2023-05-10T01:52:42;13.70;99.90
11700;DHT22;5906;51.660;6.674;2023-05-10T01:55:16;13.70;99.90
11700;DHT22;5906;51.660;6.674;2023-05-10T01:57:44;13.70;99.90
11700;DHT22;5906;51.660;6.674;2023-05-10T02:00:13;13.70;99.90
11700;DHT22;5906;51.660;6.674;2023-05-10T02:02:45;13.70;99.90
11700;DHT22;5906;51.660;6.674;2023-05-10T02:05:13;13.70;99.90
11700;DHT22;5906;51.660;6.674;2023-05-10T02:07:42;13.70;99.90
11700;DHT22;5906;51.660;6.674;2023-05-10T02:10:10;13.70;99.90
11700;DHT22;5906;51.660;6.674;2023-05-10T02:12:41;13.50;99.90
11700;DHT22;5906;51.660;6.674;2023-05-10T02:15:10;13.50;99.90
11700;DHT22;5906;51.660;6.674;2023-05-10T02:17:39;13.50;99.90
11700;DHT22;5906;51.660;6.674;2023-05-10T02:20:09;13.50;99.90
11700;DHT22;5906;51.660;6.674;2023-05-10T02:22:37;13.50;99.90
11700;DHT22;5906;51.660;6.674;2023-05-10T02:25:06;13.50;99.90
11700;DHT22;5906;51.660;6.674;2023-05-10T02:27:34;13.50;99.90
11700;DHT22;5906;51.660;6.674;2023-05-10T02:30:04;13.50;99.90
11700;DHT22;5906;51.660;6.674;2023-05-10T02:32:31;13.60;99.90
11700;DHT22;5906;51.660;6.674;2023-05-10T02:35:01;13.60;99.90
11700;DHT22;5906;51.660;6.674;2023-05-10T02:37:29;13.60;99.90
11700;DHT22;5906;51.660;6.674;2023-05-10T02:39:57;13.60;99.90
11700;DHT22;5906;51.660;6.674;2023-05-10T02:42:28;13.60;99.90
11700;DHT22;5906;51.660;6.674;2023-05-10T02:45:05;13.70;99.90
11700;DHT22;5906;51.660;6.674;2023-05-10T02:47:34;13.60;99.90
11700;DHT22;5906;51.660;6.674;2023-05-10T02:50:01;13.70;99.90
11700;DHT22;5906;51.660;6.674;2023-05-10T02:52:34;13.60;99.90
11700;DHT22;5906;51.660;6.674;2023-05-10T02:55:05;13.60;99.90
11700;DHT22;5906;51.660;6.674;2023-05-10T02:57:34;13.50;99.90
11700;DHT22;5906;51.660;6.674;2023-05-10T03:00:02;13.50;99.90
11700;DHT22;5906;51.660;6.674;2023-05-10T03:02:30;13.50;99.90
11700;DHT22;5906;51.660;6.674;2023-05-10T03:04:57;13.50;99.90
11700;DHT22;5906;51.660;6.674;2023-05-10T03:07:25;13.50;99.90
11700;DHT22;5906;51.660;6.674;2023-05-10T03:09:52;13.60;99.90
11700;DHT22;5906;51.660;6.674;2023-05-10T03:15:11;13.60;99.90
11700;DHT22;5906;51.660;6.674;2023-05-10T03:20:11;13.70;99.90
11700;DHT22;5906;51.660;6.674;2023-05-10T03:22:47;13.70;99.90
11700;DHT22;5906;51.660;6.674;2023-05-10T03:25:17;13.70;99.90
11700;DHT22;5906;51.660;6.674;2023-05-10T03:27:45;13.60;99.90
11700;DHT22;5906;51.660;6.674;2023-05-10T03:30:13;13.70;99.90
11700;DHT22;5906;51.660;6.674;2023-05-10T03:32:41;13.70;99.90
11700;DHT22;5906;51.660;6.674;2023-05-10T03:35:12;13.70;99.90
11700;DHT22;5906;51.660;6.674;2023-05-10T03:37:39;13.60;99.90
11700;DHT22;5906;51.660;6.674;2023-05-10T03:40:07;13.70;99.90
11700;DHT22;5906;51.660;6.674;2023-05-10T03:42:34;13.70;99.90
11700;DHT22;5906;51.660;6.674;2023-05-10T03:45:02;13.70;99.90
11700;DHT22;5906;51.660;6.674;2023-05-10T03:47:29;13.70;99.90
11700;DHT22;5906;51.660;6.674;2023-05-10T03:49:56;13.80;99.90
11700;DHT22;5906;51.660;6.674;2023-05-10T03:52:23;13.70;99.90
11700;DHT22;5906;51.660;6.674;2023-05-10T03:54:50;13.70;99.90
11700;DHT22;5906;51.660;6.674;2023-05-10T03:57:17;13.70;99.90
11700;DHT22;5906;51.660;6.674;2023-05-10T03:59:44;13.70;99.90
11700;DHT22;5906;51.660;6.674;2023-05-10T04:02:12;13.70;99.90
11700;DHT22;5906;51.660;6.674;2023-05-10T04:04:39;13.70;99.90
11700;DHT22;5906;51.660;6.674;2023-05-10T04:07:05;13.70;99.90
11700;DHT22;5906;51.660;6.674;2023-05-10T04:09:32;13.80;99.90
11700;DHT22;5906;51.660;6.674;2023-05-10T04:11:59;13.80;99.90
11700;DHT22;5906;51.660;6.674;2023-05-10T04:14:29;13.80;99.90
11700;DHT22;5906;51.660;6.674;2023-05-10T04:16:56;13.80;99.90
11700;DHT22;5906;51.660;6.674;2023-05-10T04:19:23;13.80;99.90
11700;DHT22;5906;51.660;6.674;2023-05-10T04:21:50;13.80;99.90
11700;DHT22;5906;51.660;6.674;2023-05-10T04:24:17;13.80;99.90
11700;DHT22;5906;51.660;6.674;2023-05-10T04:26:44;13.80;99.90
11700;DHT22;5906;51.660;6.674;2023-05-10T04:29:11;13.80;99.90
11700;DHT22;5906;51.660;6.674;2023-05-10T04:31:37;13.80;99.90
11700;DHT22;5906;51.660;6.674;2023-05-10T04:34:05;13.80;99.90
11700;DHT22;5906;51.660;6.674;2023-05-10T04:36:32;13.80;99.90
11700;DHT22;5906;51.660;6.674;2023-05-10T04:39:00;13.80;99.90
11700;DHT22;5906;51.660;6.674;2023-05-10T04:41:27;13.90;99.90
11700;DHT22;5906;51.660;6.674;2023-05-10T04:43:54;13.80;99.90
11700;DHT22;5906;51.660;6.674;2023-05-10T04:46:21;13.80;99.90
11700;DHT22;5906;51.660;6.674;2023-05-10T04:48:48;13.80;99.90
11700;DHT22;5906;51.660;6.674;2023-05-10T04:51:15;13.80;99.90
11700;DHT22;5906;51.660;6.674;2023-05-10T04:53:41;13.80;99.90
11700;DHT22;5906;51.660;6.674;2023-05-10T04:56:19;13.80;99.90
11700;DHT22;5906;51.660;6.674;2023-05-10T04:58:46;13.80;99.90
11700;DHT22;5906;51.660;6.674;2023-05-10T05:01:13;13.80;99.90
11700;DHT22;5906;51.660;6.674;2023-05-10T05:03:40;13.80;99.90
11700;DHT22;5906;51.660;6.674;2023-05-10T05:06:07;13.90;99.90
11700;DHT22;5906;51.660;6.674;2023-05-10T05:08:34;14.00;99.90
11700;DHT22;5906;51.660;6.674;2023-05-10T05:11:01;13.90;99.90
11700;DHT22;5906;51.660;6.674;2023-05-10T05:13:28;13.90;99.90
11700;DHT22;5906;51.660;6.674;2023-05-10T05:15:55;13.90;99.90
11700;DHT22;5906;51.660;6.674;2023-05-10T05:18:22;13.90;99.90
11700;DHT22;5906;51.660;6.674;2023-05-10T05:20:49;13.90;99.90
11700;DHT22;5906;51.660;6.674;2023-05-10T05:23:16;13.90;99.90
11700;DHT22;5906;51.660;6.674;2023-05-10T05:25:42;13.90;99.90
11700;DHT22;5906;51.660;6.674;2023-05-10T05:28:09;14.00;99.90
11700;DHT22;5906;51.660;6.674;2023-05-10T05:30:36;14.00;99.90
11700;DHT22;5906;51.660;6.674;2023-05-10T05:33:03;14.00;99.90
11700;DHT22;5906;51.660;6.674;2023-05-10T05:35:32;14.00;99.90
11700;DHT22;5906;51.660;6.674;2023-05-10T05:37:58;14.10;99.90
11700;DHT22;5906;51.660;6.674;2023-05-10T05:40:25;14.10;99.90
11700;DHT22;5906;51.660;6.674;2023-05-10T05:42:52;14.10;99.90
11700;DHT22;5906;51.660;6.674;2023-05-10T05:45:19;14.20;99.90
11700;DHT22;5906;51.660;6.674;2023-05-10T05:47:46;14.20;99.90
11700;DHT22;5906;51.660;6.674;2023-05-10T05:50:13;14.20;99.90
11700;DHT22;5906;51.660;6.674;2023-05-10T05:52:39;14.20;99.90
11700;DHT22;5906;51.660;6.674;2023-05-10T05:55:07;14.30;99.90
11700;DHT22;5906;51.660;6.674;2023-05-10T05:57:34;14.40;99.90
11700;DHT22;5906;51.660;6.674;2023-05-10T06:00:01;14.40;99.90
11700;DHT22;5906;51.660;6.674;2023-05-10T06:02:29;14.40;99.90
11700;DHT22;5906;51.660;6.674;2023-05-10T06:04:56;14.40;99.90
11700;DHT22;5906;51.660;6.674;2023-05-10T06:07:23;14.40;99.90
11700;DHT22;5906;51.660;6.674;2023-05-10T06:09:50;14.50;99.90
11700;DHT22;5906;51.660;6.674;2023-05-10T06:12:17;14.50;99.90
11700;DHT22;5906;51.660;6.674;2023-05-10T06:14:43;14.60;99.90
11700;DHT22;5906;51.660;6.674;2023-05-10T06:17:10;14.60;99.90
11700;DHT22;5906;51.660;6.674;2023-05-10T06:19:37;14.70;99.90
11700;DHT22;5906;51.660;6.674;2023-05-10T06:22:04;14.80;99.90
11700;DHT22;5906;51.660;6.674;2023-05-10T06:24:31;14.70;99.90
11700;DHT22;5906;51.660;6.674;2023-05-10T06:26:57;14.70;99.90
11700;DHT22;5906;51.660;6.674;2023-05-10T06:29:26;14.80;99.90
11700;DHT22;5906;51.660;6.674;2023-05-10T06:31:53;14.80;99.90
11700;DHT22;5906;51.660;6.674;2023-05-10T06:34:21;14.80;99.90
11700;DHT22;5906;51.660;6.674;2023-05-10T06:36:47;14.70;99.90
11700;DHT22;5906;51.660;6.674;2023-05-10T06:39:14;14.80;99.90
11700;DHT22;5906;51.660;6.674;2023-05-10T06:41:41;14.80;99.90
11700;DHT22;5906;51.660;6.674;2023-05-10T06:44:09;14.80;99.90
11700;DHT22;5906;51.660;6.674;2023-05-10T06:46:36;14.80;99.90
11700;DHT22;5906;51.660;6.674;2023-05-10T06:49:03;14.80;99.90
11700;DHT22;5906;51.660;6.674;2023-05-10T06:51:30;14.90;99.90
11700;DHT22;5906;51.660;6.674;2023-05-10T06:53:57;14.90;99.90
11700;DHT22;5906;51.660;6.674;2023-05-10T06:56:23;15.00;99.90
11700;DHT22;5906;51.660;6.674;2023-05-10T06:58:50;14.90;99.90
11700;DHT22;5906;51.660;6.674;2023-05-10T07:01:17;15.10;99.90
11700;DHT22;5906;51.660;6.674;2023-05-10T07:03:45;15.10;99.90
11700;DHT22;5906;51.660;6.674;2023-05-10T07:06:11;15.20;99.90
11700;DHT22;5906;51.660;6.674;2023-05-10T07:08:56;15.20;99.90
11700;DHT22;5906;51.660;6.674;2023-05-10T07:11:23;15.20;99.90
11700;DHT22;5906;51.660;6.674;2023-05-10T07:13:50;15.40;99.90
11700;DHT22;5906;51.660;6.674;2023-05-10T07:16:17;15.50;99.90
11700;DHT22;5906;51.660;6.674;2023-05-10T07:18:44;15.60;99.90
11700;DHT22;5906;51.660;6.674;2023-05-10T07:21:11;15.60;99.90
11700;DHT22;5906;51.660;6.674;2023-05-10T07:23:38;15.60;99.90
11700;DHT22;5906;51.660;6.674;2023-05-10T07:26:05;15.60;99.90
11700;DHT22;5906;51.660;6.674;2023-05-10T07:28:31;15.70;99.90
11700;DHT22;5906;51.660;6.674;2023-05-10T07:30:58;15.80;99.90
11700;DHT22;5906;51.660;6.674;2023-05-10T07:33:25;15.80;99.90
11700;DHT22;5906;51.660;6.674;2023-05-10T07:35:52;15.90;99.90
11700;DHT22;5906;51.660;6.674;2023-05-10T07:38:19;15.80;99.90
11700;DHT22;5906;51.660;6.674;2023-05-10T07:40:45;15.80;99.90
11700;DHT22;5906;51.660;6.674;2023-05-10T07:43:12;15.70;99.90
11700;DHT22;5906;51.660;6.674;2023-05-10T07:45:39;15.60;99.90
11700;DHT22;5906;51.660;6.674;2023-05-10T07:48:06;15.60;99.90
11700;DHT22;5906;51.660;6.674;2023-05-10T07:50:32;15.70;99.90
11700;DHT22;5906;51.660;6.674;2023-05-10T07:52:59;15.60;99.90
11700;DHT22;5906;51.660;6.674;2023-05-10T07:55:26;15.60;99.90
11700;DHT22;5906;51.660;6.674;2023-05-10T07:57:53;15.70;99.90
11700;DHT22;5906;51.660;6.674;2023-05-10T08:00:20;15.80;99.90
11700;DHT22;5906;51.660;6.674;2023-05-10T08:02:47;15.80;99.90
11700;DHT22;5906;51.660;6.674;2023-05-10T08:05:14;15.80;99.90
11700;DHT22;5906;51.660;6.674;2023-05-10T08:07:42;15.90;99.90
11700;DHT22;5906;51.660;6.674;2023-05-10T08:10:09;16.00;99.90
11700;DHT22;5906;51.660;6.674;2023-05-10T08:12:41;16.20;99.90
11700;DHT22;5906;51.660;6.674;2023-05-10T08:15:08;16.30;99.90
11700;DHT22;5906;51.660;6.674;2023-05-10T08:17:35;16.50;99.90
11700;DHT22;5906;51.660;6.674;2023-05-10T08:20:02;16.70;99.90
11700;DHT22;5906;51.660;6.674;2023-05-10T08:22:29;16.80;99.90
11700;DHT22;5906;51.660;6.674;2023-05-10T08:24:56;16.90;99.90
11700;DHT22;5906;51.660;6.674;2023-05-10T08:27:22;16.80;99.90
11700;DHT22;5906;51.660;6.674;2023-05-10T08:29:49;16.60;99.90
11700;DHT22;5906;51.660;6.674;2023-05-10T08:32:17;16.40;99.90
11700;DHT22;5906;51.660;6.674;2023-05-10T08:34:44;16.50;99.90
11700;DHT22;5906;51.660;6.674;2023-05-10T08:37:11;16.40;99.90
11700;DHT22;5906;51.660;6.674;2023-05-10T08:39:40;16.50;99.90
11700;DHT22;5906;51.660;6.674;2023-05-10T08:42:07;16.50;99.90
11700;DHT22;5906;51.660;6.674;2023-05-10T08:44:36;16.40;99.90
11700;DHT22;5906;51.660;6.674;2023-05-10T08:47:05;16.30;99.90
11700;DHT22;5906;51.660;6.674;2023-05-10T08:49:37;16.20;99.90
11700;DHT22;5906;51.660;6.674;2023-05-10T08:52:05;16.10;99.90
11700;DHT22;5906;51.660;6.674;2023-05-10T08:54:34;15.90;99.90
11700;DHT22;5906;51.660;6.674;2023-05-10T08:57:01;15.90;99.90
11700;DHT22;5906;51.660;6.674;2023-05-10T08:59:28;15.80;99.90
11700;DHT22;5906;51.660;6.674;2023-05-10T09:01:58;15.90;99.90
11700;DHT22;5906;51.660;6.674;2023-05-10T09:04:26;16.00;99.90
11700;DHT22;5906;51.660;6.674;2023-05-10T09:06:54;16.00;99.90
11700;DHT22;5906;51.660;6.674;2023-05-10T09:09:21;16.00;99.90
11700;DHT22;5906;51.660;6.674;2023-05-10T09:11:48;16.00;99.90
11700;DHT22;5906;51.660;6.674;2023-05-10T09:14:16;15.90;99.90
11700;DHT22;5906;51.660;6.674;2023-05-10T09:16:44;16.00;99.90
11700;DHT22;5906;51.660;6.674;2023-05-10T09:19:11;15.90;99.90
11700;DHT22;5906;51.660;6.674;2023-05-10T09:21:38;15.80;99.90
11700;DHT22;5906;51.660;6.674;2023-05-10T09:24:08;15.80;99.90
11700;DHT22;5906;51.660;6.674;2023-05-10T09:26:39;15.80;99.90
11700;DHT22;5906;51.660;6.674;2023-05-10T09:29:11;15.70;99.90
11700;DHT22;5906;51.660;6.674;2023-05-10T09:32:01;15.70;99.90
11700;DHT22;5906;51.660;6.674;2023-05-10T09:34:30;15.80;99.90
11700;DHT22;5906;51.660;6.674;2023-05-10T09:37:01;15.80;99.90
11700;DHT22;5906;51.660;6.674;2023-05-10T09:39:33;15.90;99.90
11700;DHT22;5906;51.660;6.674;2023-05-10T09:42:10;16.00;99.90
11700;DHT22;5906;51.660;6.674;2023-05-10T09:44:37;16.10;99.90
11700;DHT22;5906;51.660;6.674;2023-05-10T09:47:05;16.10;99.90
11700;DHT22;5906;51.660;6.674;2023-05-10T09:49:31;16.20;99.90
11700;DHT22;5906;51.660;6.674;2023-05-10T09:52:03;16.30;99.90
11700;DHT22;5906;51.660;6.674;2023-05-10T09:54:32;16.40;99.90
11700;DHT22;5906;51.660;6.674;2023-05-10T09:57:00;16.40;99.90
11700;DHT22;5906;51.660;6.674;2023-05-10T09:59:28;16.30;99.90
11700;DHT22;5906;51.660;6.674;2023-05-10T10:01:59;16.30;99.90
11700;DHT22;5906;51.660;6.674;2023-05-10T10:04:26;16.10;99.90
11700;DHT22;5906;51.660;6.674;2023-05-10T10:07:04;16.20;99.90
11700;DHT22;5906;51.660;6.674;2023-05-10T10:09:31;16.30;99.90
11700;DHT22;5906;51.660;6.674;2023-05-10T10:12:03;16.30;99.90
11700;DHT22;5906;51.660;6.674;2023-05-10T10:14:30;16.40;99.90
11700;DHT22;5906;51.660;6.674;2023-05-10T10:16:57;16.50;99.90
11700;DHT22;5906;51.660;6.674;2023-05-10T10:19:34;16.60;99.90
11700;DHT22;5906;51.660;6.674;2023-05-10T10:22:02;16.70;99.90
11700;DHT22;5906;51.660;6.674;2023-05-10T10:24:29;16.80;99.90
11700;DHT22;5906;51.660;6.674;2023-05-10T10:27:11;16.90;99.90
11700;DHT22;5906;51.660;6.674;2023-05-10T10:35:18;17.00;99.90
11700;DHT22;5906;51.660;6.674;2023-05-10T10:37:50;17.10;99.90
11700;DHT22;5906;51.660;6.674;2023-05-10T10:42:54;16.90;99.90
11700;DHT22;5906;51.660;6.674;2023-05-10T10:45:23;16.90;99.90
11700;DHT22;5906;51.660;6.674;2023-05-10T10:48:19;16.90;99.90
11700;DHT22;5906;51.660;6.674;2023-05-10T10:50:44;17.00;99.90
11700;DHT22;5906;51.660;6.674;2023-05-10T10:53:12;17.20;99.90
11700;DHT22;5906;51.660;6.674;2023-05-10T10:55:48;17.20;99.90
11700;DHT22;5906;51.660;6.674;2023-05-10T10:58:31;17.20;99.90
11700;DHT22;5906;51.660;6.674;2023-05-10T11:03:41;17.20;99.90
11700;DHT22;5906;51.660;6.674;2023-05-10T11:06:31;17.20;99.90
11700;DHT22;5906;51.660;6.674;2023-05-10T11:08:59;17.20;99.90
11700;DHT22;5906;51.660;6.674;2023-05-10T11:11:31;17.30;99.90
11700;DHT22;5906;51.660;6.674;2023-05-10T11:14:04;17.50;99.90
11700;DHT22;5906;51.660;6.674;2023-05-10T11:16:42;17.50;99.90
11700;DHT22;5906;51.660;6.674;2023-05-10T11:19:13;17.60;99.90
11700;DHT22;5906;51.660;6.674;2023-05-10T11:24:30;17.70;99.90
11700;DHT22;5906;51.660;6.674;2023-05-10T11:26:57;17.80;99.90
11700;DHT22;5906;51.660;6.674;2023-05-10T11:29:24;17.80;99.90
11700;DHT22;5906;51.660;6.674;2023-05-10T11:31:57;18.00;99.90
11700;DHT22;5906;51.660;6.674;2023-05-10T11:34:28;18.30;99.90
11700;DHT22;5906;51.660;6.674;2023-05-10T11:37:02;18.60;99.90
11700;DHT22;5906;51.660;6.674;2023-05-10T11:39:30;18.70;99.90
11700;DHT22;5906;51.660;6.674;2023-05-10T11:41:58;18.80;99.90
11700;DHT22;5906;51.660;6.674;2023-05-10T11:44:31;18.60;99.90
11700;DHT22;5906;51.660;6.674;2023-05-10T11:47:02;18.50;99.90
11700;DHT22;5906;51.660;6.674;2023-05-10T11:49:30;18.60;99.90
11700;DHT22;5906;51.660;6.674;2023-05-10T11:52:09;18.60;99.90
11700;DHT22;5906;51.660;6.674;2023-05-10T11:54:37;18.60;99.90
11700;DHT22;5906;51.660;6.674;2023-05-10T11:57:04;18.60;99.90
11700;DHT22;5906;51.660;6.674;2023-05-10T11:59:31;18.70;99.90
11700;DHT22;5906;51.660;6.674;2023-05-10T12:01:59;18.90;99.90
11700;DHT22;5906;51.660;6.674;2023-05-10T12:04:26;18.90;99.90
11700;DHT22;5906;51.660;6.674;2023-05-10T12:06:55;18.90;99.90
11700;DHT22;5906;51.660;6.674;2023-05-10T12:09:22;19.20;99.90
11700;DHT22;5906;51.660;6.674;2023-05-10T12:11:56;19.40;99.90
11700;DHT22;5906;51.660;6.674;2023-05-10T12:14:26;19.50;99.90
11700;DHT22;5906;51.660;6.674;2023-05-10T12:16:52;19.60;99.90
11700;DHT22;5906;51.660;6.674;2023-05-10T12:19:19;19.70;99.90
11700;DHT22;5906;51.660;6.674;2023-05-10T12:21:47;20.00;99.90
11700;DHT22;5906;51.660;6.674;2023-05-10T12:24:14;20.00;99.90
11700;DHT22;5906;51.660;6.674;2023-05-10T12:26:47;19.90;99.90
11700;DHT22;5906;51.660;6.674;2023-05-10T12:29:16;19.80;99.90
11700;DHT22;5906;51.660;6.674;2023-05-10T12:36:55;20.00;99.90
11700;DHT22;5906;51.660;6.674;2023-05-10T12:39:23;20.10;99.90
11700;DHT22;5906;51.660;6.674;2023-05-10T12:41:51;20.10;99.90
11700;DHT22;5906;51.660;6.674;2023-05-10T12:44:18;20.10;99.90
11700;DHT22;5906;51.660;6.674;2023-05-10T12:46:44;20.20;99.90
11700;DHT22;5906;51.660;6.674;2023-05-10T12:49:11;20.20;99.90
11700;DHT22;5906;51.660;6.674;2023-05-10T12:51:38;20.10;99.90
11700;DHT22;5906;51.660;6.674;2023-05-10T12:54:05;20.10;99.90
11700;DHT22;5906;51.660;6.674;2023-05-10T12:56:31;20.10;99.90
11700;DHT22;5906;51.660;6.674;2023-05-10T12:58:58;20.30;99.90
11700;DHT22;5906;51.660;6.674;2023-05-10T13:01:25;20.30;99.90
11700;DHT22;5906;51.660;6.674;2023-05-10T13:03:53;20.40;99.90
11700;DHT22;5906;51.660;6.674;2023-05-10T13:06:20;20.40;99.90
11700;DHT22;5906;51.660;6.674;2023-05-10T13:08:46;20.30;99.90
11700;DHT22;5906;51.660;6.674;2023-05-10T13:11:14;20.20;99.90
11700;DHT22;5906;51.660;6.674;2023-05-10T13:13:43;20.00;99.90
11700;DHT22;5906;51.660;6.674;2023-05-10T13:16:10;19.90;99.90
11700;DHT22;5906;51.660;6.674;2023-05-10T13:18:37;19.90;99.90
11700;DHT22;5906;51.660;6.674;2023-05-10T13:21:05;19.70;99.90
11700;DHT22;5906;51.660;6.674;2023-05-10T13:23:32;19.50;99.90
11700;DHT22;5906;51.660;6.674;2023-05-10T13:25:59;19.50;99.90
11700;DHT22;5906;51.660;6.674;2023-05-10T13:28:26;19.50;99.90
11700;DHT22;5906;51.660;6.674;2023-05-10T13:30:53;19.50;99.90
11700;DHT22;5906;51.660;6.674;2023-05-10T13:33:20;19.50;99.90
11700;DHT22;5906;51.660;6.674;2023-05-10T13:35:47;19.40;99.90
11700;DHT22;5906;51.660;6.674;2023-05-10T13:38:14;19.40;99.90
11700;DHT22;5906;51.660;6.674;2023-05-10T13:40:40;19.70;99.90
11700;DHT22;5906;51.660;6.674;2023-05-10T13:43:07;19.80;99.90
11700;DHT22;5906;51.660;6.674;2023-05-10T13:45:34;20.10;99.90
11700;DHT22;5906;51.660;6.674;2023-05-10T13:48:04;20.10;99.90
11700;DHT22;5906;51.660;6.674;2023-05-10T13:50:31;20.30;99.90
11700;DHT22;5906;51.660;6.674;2023-05-10T13:52:58;20.50;99.90
11700;DHT22;5906;51.660;6.674;2023-05-10T13:55:25;20.70;99.90
11700;DHT22;5906;51.660;6.674;2023-05-10T13:57:51;20.80;99.90
11700;DHT22;5906;51.660;6.674;2023-05-10T14:00:18;20.80;99.90
11700;DHT22;5906;51.660;6.674;2023-05-10T14:02:45;20.70;99.90
11700;DHT22;5906;51.660;6.674;2023-05-10T14:05:12;20.50;99.90
11700;DHT22;5906;51.660;6.674;2023-05-10T14:07:39;20.50;99.90
11700;DHT22;5906;51.660;6.674;2023-05-10T14:10:06;20.50;99.90
11700;DHT22;5906;51.660;6.674;2023-05-10T14:12:33;20.50;99.90
11700;DHT22;5906;51.660;6.674;2023-05-10T14:15:00;20.50;99.90
11700;DHT22;5906;51.660;6.674;2023-05-10T14:17:27;20.30;99.90
11700;DHT22;5906;51.660;6.674;2023-05-10T14:19:54;20.30;99.90
11700;DHT22;5906;51.660;6.674;2023-05-10T14:22:21;20.30;99.90
11700;DHT22;5906;51.660;6.674;2023-05-10T14:24:48;20.30;99.90
11700;DHT22;5906;51.660;6.674;2023-05-10T14:27:15;20.30;99.90
11700;DHT22;5906;51.660;6.674;2023-05-10T14:29:42;20.30;99.90
11700;DHT22;5906;51.660;6.674;2023-05-10T14:32:09;20.30;99.90
11700;DHT22;5906;51.660;6.674;2023-05-10T14:37:18;20.20;99.90
11700;DHT22;5906;51.660;6.674;2023-05-10T14:39:44;20.10;99.90
11700;DHT22;5906;51.660;6.674;2023-05-10T14:42:12;20.10;99.90
11700;DHT22;5906;51.660;6.674;2023-05-10T14:44:38;20.30;99.90
11700;DHT22;5906;51.660;6.674;2023-05-10T14:47:06;20.10;99.90
11700;DHT22;5906;51.660;6.674;2023-05-10T14:49:34;20.20;99.90
11700;DHT22;5906;51.660;6.674;2023-05-10T14:52:01;20.30;99.90
11700;DHT22;5906;51.660;6.674;2023-05-10T14:54:28;20.20;99.90
11700;DHT22;5906;51.660;6.674;2023-05-10T14:56:55;20.10;99.90
11700;DHT22;5906;51.660;6.674;2023-05-10T14:59:22;20.20;99.90
11700;DHT22;5906;51.660;6.674;2023-05-10T15:01:49;20.20;99.90
11700;DHT22;5906;51.660;6.674;2023-05-10T15:04:17;20.20;99.90
11700;DHT22;5906;51.660;6.674;2023-05-10T15:06:45;20.10;99.90
11700;DHT22;5906;51.660;6.674;2023-05-10T15:09:12;20.00;99.90
11700;DHT22;5906;51.660;6.674;2023-05-10T15:11:39;19.80;99.90
11700;DHT22;5906;51.660;6.674;2023-05-10T15:14:06;19.40;99.90
11700;DHT22;5906;51.660;6.674;2023-05-10T15:16:33;19.00;99.90
11700;DHT22;5906;51.660;6.674;2023-05-10T15:19:02;18.70;99.90
11700;DHT22;5906;51.660;6.674;2023-05-10T15:21:29;18.40;99.90
11700;DHT22;5906;51.660;6.674;2023-05-10T15:24:01;18.30;99.90
11700;DHT22;5906;51.660;6.674;2023-05-10T15:26:28;18.10;99.90
11700;DHT22;5906;51.660;6.674;2023-05-10T15:28:56;18.10;99.90
11700;DHT22;5906;51.660;6.674;2023-05-10T15:31:23;18.10;99.90
11700;DHT22;5906;51.660;6.674;2023-05-10T15:33:50;18.10;99.90
11700;DHT22;5906;51.660;6.674;2023-05-10T15:36:17;18.10;99.90
11700;DHT22;5906;51.660;6.674;2023-05-10T15:38:44;18.00;99.90
11700;DHT22;5906;51.660;6.674;2023-05-10T15:41:11;18.10;99.90
11700;DHT22;5906;51.660;6.674;2023-05-10T15:43:38;18.20;99.90
11700;DHT22;5906;51.660;6.674;2023-05-10T15:46:06;18.20;99.90
11700;DHT22;5906;51.660;6.674;2023-05-10T15:48:33;18.10;99.90
11700;DHT22;5906;51.660;6.674;2023-05-10T15:51:00;18.00;99.90
11700;DHT22;5906;51.660;6.674;2023-05-10T15:53:27;18.00;99.90
11700;DHT22;5906;51.660;6.674;2023-05-10T15:55:54;18.10;99.90
11700;DHT22;5906;51.660;6.674;2023-05-10T15:58:21;18.00;99.90
11700;DHT22;5906;51.660;6.674;2023-05-10T16:00:48;18.00;99.90
11700;DHT22;5906;51.660;6.674;2023-05-10T16:03:15;17.90;99.90
11700;DHT22;5906;51.660;6.674;2023-05-10T16:05:42;17.80;99.90
11700;DHT22;5906;51.660;6.674;2023-05-10T16:08:09;17.80;99.90
11700;DHT22;5906;51.660;6.674;2023-05-10T16:10:36;17.90;99.90
11700;DHT22;5906;51.660;6.674;2023-05-10T16:13:03;17.90;99.90
11700;DHT22;5906;51.660;6.674;2023-05-10T16:15:30;18.00;99.90
11700;DHT22;5906;51.660;6.674;2023-05-10T16:17:58;17.80;99.90
11700;DHT22;5906;51.660;6.674;2023-05-10T16:20:25;17.90;99.90
11700;DHT22;5906;51.660;6.674;2023-05-10T16:22:52;17.90;99.90
11700;DHT22;5906;51.660;6.674;2023-05-10T16:25:19;18.00;99.90
11700;DHT22;5906;51.660;6.674;2023-05-10T16:27:46;18.10;99.90
11700;DHT22;5906;51.660;6.674;2023-05-10T16:30:13;18.10;99.90